Elmwood, Massachusetts
Current Conditions -  °F | °C
As of 12:35 PM on Wednesday 26 Nov 2014 (Local Time) from KTAN Reporting Station
Heavy Rain Heavy Rain  
Wind Chill: 31°   Ceiling: 600
Heat Index: 37°   Visibility: 2mi
Dew Point: 35°   Wind: 8mph
Humidity: 93%   Direction: 20°NNE
Pressure: 30.05"   Gusts: NA
Location:  42.01°N, 70.96°W
Report Text: KTAN 261735Z AUTO 02007KT 2SM +RA BR BKN006 OVC028 03/02 A3005 RMK AO2 PRESFR P0012 T00280017
Loading
Personal Weather Stations






























Interactive Weather Map New forecast layout! Learn more

10-Day Weather Forecast

Advertisements
Track Severe Weather on mobile